createdAt,value
2019-02-05T00:01:49.149Z,24.43
2019-02-05T00:03:59.958Z,24.13
2019-02-05T00:06:10.868Z,24.00
2019-02-05T00:08:21.863Z,25.50
2019-02-05T00:10:32.653Z,24.33
2019-02-05T00:12:43.491Z,29.33
2019-02-05T00:14:54.279Z,28.13
2019-02-05T00:17:05.085Z,21.60
2019-02-05T00:19:15.902Z,29.03
2019-02-05T00:21:26.831Z,25.13
2019-02-05T00:23:37.634Z,23.30
2019-02-05T00:25:48.441Z,24.60
2019-02-05T00:27:59.324Z,25.83
2019-02-05T00:33:09.389Z,25.17
2019-02-05T00:35:20.188Z,29.80
2019-02-05T00:37:31.002Z,26.07
2019-02-05T00:39:41.994Z,27.97
2019-02-05T00:41:52.921Z,24.70
2019-02-05T00:44:03.713Z,27.20
2019-02-05T00:46:16.432Z,29.87
2019-02-05T00:48:27.254Z,27.87
2019-02-05T00:50:38.159Z,27.47
2019-02-05T00:52:49.071Z,26.53
2019-02-05T00:54:59.873Z,27.07
2019-02-05T00:57:10.804Z,29.17
2019-02-05T01:02:14.125Z,27.97
2019-02-05T01:04:24.943Z,27.13
2019-02-05T01:06:35.835Z,25.87
2019-02-05T01:08:46.652Z,28.43
2019-02-05T01:10:57.435Z,27.93
2019-02-05T01:13:08.365Z,31.90
2019-02-05T01:16:00.803Z,30.40
2019-02-05T01:18:11.613Z,25.83
2019-02-05T01:23:14.935Z,28.07
2019-02-05T01:25:25.726Z,27.37
2019-02-05T01:27:36.534Z,29.77
2019-02-05T01:29:49.257Z,22.83
2019-02-05T01:32:00.115Z,24.43
2019-02-05T01:34:10.915Z,27.60
2019-02-05T01:36:21.716Z,25.87
2019-02-05T01:38:32.526Z,28.40
2019-02-05T01:40:56.698Z,23.60
2019-02-05T01:43:07.548Z,26.23
2019-02-05T01:46:00.008Z,26.73
2019-02-05T01:48:11.117Z,23.47
2019-02-05T01:51:03.589Z,26.73
2019-02-05T01:53:14.383Z,28.93
2019-02-05T01:55:25.196Z,24.60
2019-02-05T01:57:36.090Z,26.70
2019-02-05T01:59:46.933Z,23.50
2019-02-05T02:01:59.645Z,22.43
2019-02-05T02:04:10.647Z,22.50
2019-02-05T02:06:21.492Z,26.93
2019-02-05T02:08:32.368Z,25.03
2019-02-05T02:10:43.295Z,26.57
2019-02-05T02:12:54.083Z,26.93
2019-02-05T02:15:46.564Z,24.77
2019-02-05T02:17:57.470Z,23.73
2019-02-05T02:20:49.925Z,27.30
2019-02-05T02:23:00.833Z,25.10
2019-02-05T02:25:53.322Z,24.97
2019-02-05T02:28:04.226Z,24.93
2019-02-05T02:30:56.703Z,24.50
2019-02-05T02:33:07.500Z,28.50
2019-02-05T02:35:18.617Z,24.07
2019-02-05T02:37:29.405Z,24.47
2019-02-05T02:39:40.204Z,25.73
2019-02-05T02:41:51.045Z,24.87
2019-02-05T02:44:01.981Z,25.07
2019-02-05T02:46:12.775Z,20.50
2019-02-05T02:48:23.581Z,22.90
2019-02-05T02:50:34.413Z,27.27
2019-02-05T02:52:45.245Z,27.57
2019-02-05T02:54:56.033Z,28.33
2019-02-05T02:57:08.759Z,28.43
2019-02-05T02:59:19.559Z,23.80
2019-02-05T03:01:30.468Z,22.80
2019-02-05T03:03:41.359Z,28.37
2019-02-05T03:05:52.166Z,26.70
2019-02-05T03:08:02.992Z,27.87
2019-02-05T03:10:55.452Z,27.67
2019-02-05T03:13:06.254Z,27.13
2019-02-05T03:15:17.215Z,30.20
2019-02-05T03:17:28.176Z,25.80
2019-02-05T03:19:38.970Z,26.70
2019-02-05T03:21:49.774Z,28.07
2019-02-05T03:24:00.575Z,29.73
2019-02-05T03:26:11.497Z,29.73
2019-02-05T03:28:24.221Z,28.77
2019-02-05T03:30:35.026Z,30.90
2019-02-05T03:32:45.853Z,26.27
2019-02-05T03:34:56.652Z,28.37
2019-02-05T03:37:07.464Z,27.70
2019-02-05T03:39:18.355Z,27.30
2019-02-05T03:41:29.284Z,28.40
2019-02-05T03:43:40.084Z,29.03
2019-02-05T03:46:32.583Z,26.07
2019-02-05T03:49:25.040Z,27.87
2019-02-05T03:52:17.807Z,24.83
2019-02-05T03:55:10.266Z,24.20
2019-02-05T03:58:03.010Z,26.43
2019-02-05T04:00:55.489Z,23.23
2019-02-05T04:03:46.373Z,24.43
2019-02-05T04:06:38.775Z,26.77
2019-02-05T04:09:29.636Z,23.37
2019-02-05T04:12:20.188Z,24.17
2019-02-05T04:15:12.723Z,26.03
2019-02-05T04:18:03.273Z,24.13
2019-02-05T04:20:55.736Z,25.87
2019-02-05T04:23:46.302Z,23.03
2019-02-05T04:26:38.776Z,26.53
2019-02-05T04:29:31.268Z,27.97
2019-02-05T04:32:21.809Z,25.37
2019-02-05T04:35:14.279Z,27.77
2019-02-05T04:38:04.823Z,27.73
2019-02-05T04:40:55.405Z,23.13
2019-02-05T04:46:43.917Z,23.83
2019-02-05T04:49:36.376Z,27.10
2019-02-05T04:52:26.948Z,24.97
2019-02-05T04:55:19.432Z,25.63
2019-02-05T04:58:09.958Z,28.17
2019-02-05T05:01:02.422Z,23.37
2019-02-05T05:03:54.875Z,23.93
2019-02-05T05:06:47.337Z,25.37
2019-02-05T05:09:39.781Z,23.70
2019-02-05T05:11:50.718Z,28.40
2019-02-05T05:14:01.678Z,24.40
2019-02-05T05:16:12.482Z,27.27
2019-02-05T05:18:23.287Z,24.23
2019-02-05T05:20:34.209Z,32.30
2019-02-05T05:22:45.120Z,25.53
2019-02-05T05:25:37.556Z,28.10
2019-02-05T05:28:30.033Z,25.40
2019-02-05T05:30:40.840Z,29.03
2019-02-05T05:32:53.575Z,25.30
2019-02-05T05:35:46.026Z,27.00
2019-02-05T05:37:56.860Z,25.67
2019-02-05T05:40:07.744Z,26.10
2019-02-05T05:42:18.585Z,28.13
2019-02-05T05:44:51.166Z,28.07
2019-02-05T05:47:02.003Z,22.53
2019-02-05T05:49:12.896Z,26.43
2019-02-05T05:51:25.601Z,26.00
2019-02-05T05:53:36.419Z,27.53
2019-02-05T05:55:47.217Z,27.73
2019-02-05T05:57:58.034Z,25.10
2019-02-05T06:00:50.483Z,24.60
2019-02-05T06:03:01.325Z,28.13
2019-02-05T06:05:55.677Z,27.17
2019-02-05T06:08:26.409Z,24.63
2019-02-05T06:10:37.236Z,27.30
2019-02-05T06:12:48.053Z,24.67
2019-02-05T06:14:58.845Z,24.20
2019-02-05T06:17:09.651Z,25.17
2019-02-05T06:19:20.589Z,21.80
2019-02-05T06:21:31.561Z,24.03
2019-02-05T06:23:42.583Z,27.67
2019-02-05T06:25:53.481Z,27.90
2019-02-05T06:30:42.979Z,27.63
2019-02-05T06:32:53.993Z,32.90
2019-02-05T06:35:46.462Z,31.93
2019-02-05T06:37:57.366Z,27.13
2019-02-05T06:40:28.082Z,31.33
2019-02-05T06:42:38.899Z,34.33
2019-02-05T06:44:49.828Z,29.97
2019-02-05T06:47:00.613Z,33.40
2019-02-05T06:49:11.430Z,36.07
2019-02-05T06:51:22.220Z,34.17
2019-02-05T06:53:33.029Z,29.27
2019-02-05T06:55:43.840Z,31.90
2019-02-05T06:57:54.642Z,30.30
2019-02-05T07:00:47.134Z,31.10
2019-02-05T07:02:58.442Z,27.70
2019-02-05T07:05:50.924Z,33.67
2019-02-05T07:08:02.049Z,26.23
2019-02-05T07:10:54.540Z,25.73
2019-02-05T07:13:46.998Z,25.40
2019-02-05T07:15:57.833Z,26.53
2019-02-05T07:18:08.604Z,32.80
2019-02-05T07:20:21.433Z,34.93
2019-02-05T07:22:32.455Z,33.27
2019-02-05T07:24:43.335Z,33.63
2019-02-05T07:26:54.160Z,32.37
2019-02-05T07:29:04.958Z,37.47
2019-02-05T07:31:15.756Z,35.50
2019-02-05T07:33:26.620Z,31.80
2019-02-05T07:35:37.428Z,32.43
2019-02-05T07:37:48.422Z,32.17
2019-02-05T07:40:01.131Z,35.33
2019-02-05T07:42:11.974Z,36.13
2019-02-05T07:44:22.766Z,38.50
2019-02-05T07:46:33.606Z,36.43
2019-02-05T07:48:44.519Z,34.30
2019-02-05T07:50:55.427Z,37.23
2019-02-05T07:53:06.249Z,33.87
2019-02-05T07:55:17.056Z,35.00
2019-02-05T07:57:29.785Z,32.80
2019-02-05T07:59:40.580Z,32.73
2019-02-05T08:01:51.416Z,36.50
2019-02-05T08:04:43.882Z,35.17
2019-02-05T08:06:54.699Z,30.70
2019-02-05T08:09:49.055Z,31.40
2019-02-05T08:11:59.991Z,29.30
2019-02-05T08:14:11.040Z,28.10
2019-02-05T08:16:21.825Z,28.83
2019-02-05T08:18:32.752Z,27.63
2019-02-05T08:20:45.473Z,28.10
2019-02-05T08:22:56.296Z,24.80
2019-02-05T08:25:48.752Z,24.70
2019-02-05T08:27:59.550Z,28.43
2019-02-05T08:30:51.981Z,26.57
2019-02-05T08:33:03.133Z,26.67
2019-02-05T08:35:55.631Z,28.90
2019-02-05T08:38:06.833Z,28.37
2019-02-05T08:40:59.293Z,27.93
2019-02-05T08:43:10.200Z,25.00
2019-02-05T08:46:02.649Z,26.07
2019-02-05T08:48:13.456Z,27.77
2019-02-05T08:51:05.909Z,27.23
2019-02-05T08:53:16.718Z,25.07
2019-02-05T08:55:30.663Z,25.97
2019-02-05T08:57:40.322Z,27.47
2019-02-05T08:59:51.149Z,25.27
2019-02-05T09:02:01.961Z,24.70
2019-02-05T09:04:12.908Z,25.77
2019-02-05T09:06:23.688Z,25.20
2019-02-05T09:08:34.524Z,25.70
2019-02-05T09:10:45.453Z,26.20
2019-02-05T09:12:58.258Z,24.17
2019-02-05T09:15:52.629Z,27.70
2019-02-05T09:18:45.072Z,25.47
2019-02-05T09:20:55.999Z,25.17
2019-02-05T09:23:06.912Z,25.07
2019-02-05T09:25:59.370Z,25.00
2019-02-05T09:28:10.168Z,22.70
2019-02-05T09:30:40.846Z,22.93
2019-02-05T09:33:33.282Z,22.43
2019-02-05T09:35:44.102Z,24.03
2019-02-05T09:37:57.749Z,25.50
2019-02-05T09:40:49.362Z,23.53
2019-02-05T09:43:00.619Z,22.63
2019-02-05T09:45:53.120Z,23.27
2019-02-05T09:48:04.232Z,23.83
2019-02-05T09:50:56.702Z,24.57
2019-02-05T09:53:07.711Z,23.80
2019-02-05T09:56:00.182Z,21.50
2019-02-05T09:58:11.033Z,21.20
2019-02-05T10:01:05.409Z,24.37
2019-02-05T10:03:16.211Z,22.83
2019-02-05T10:06:08.672Z,21.80
2019-02-05T10:08:19.468Z,25.40
2019-02-05T10:10:30.385Z,22.87
2019-02-05T10:12:41.384Z,22.10
2019-02-05T10:14:52.192Z,21.43
2019-02-05T10:17:03.103Z,22.57
2019-02-05T10:19:13.916Z,21.93
2019-02-05T10:21:24.835Z,21.97
2019-02-05T10:23:35.670Z,23.03
2019-02-05T10:25:48.603Z,24.30
2019-02-05T10:27:59.530Z,21.43
2019-02-05T10:30:51.985Z,22.23
2019-02-05T10:33:54.668Z,24.23
2019-02-05T10:35:57.180Z,21.30
2019-02-05T10:38:15.263Z,20.60
2019-02-05T10:40:26.168Z,20.70
2019-02-05T10:42:37.027Z,18.50
2019-02-05T10:44:47.815Z,20.13
2019-02-05T10:46:58.751Z,19.80
2019-02-05T10:49:09.558Z,20.83
2019-02-05T10:51:20.361Z,20.13
2019-02-05T10:53:33.099Z,20.13
2019-02-05T10:55:43.888Z,17.67
2019-02-05T10:57:54.811Z,16.97
2019-02-05T11:00:47.470Z,17.97
2019-02-05T11:03:39.958Z,15.33
2019-02-05T11:05:50.758Z,13.97
2019-02-05T11:08:01.691Z,17.30
2019-02-05T11:10:54.202Z,13.70
2019-02-05T11:13:46.667Z,15.93
2019-02-05T11:15:57.490Z,13.97
2019-02-05T11:18:08.397Z,15.70
2019-02-05T11:21:00.836Z,12.27
2019-02-05T11:23:11.755Z,15.37
2019-02-05T11:25:22.755Z,10.60
2019-02-05T11:27:33.552Z,11.87
2019-02-05T11:29:44.375Z,12.90
2019-02-05T11:31:55.175Z,15.90
2019-02-05T11:34:07.887Z,13.73
2019-02-05T11:36:18.710Z,16.23
2019-02-05T11:38:29.535Z,13.40
2019-02-05T11:40:40.462Z,16.80
2019-02-05T11:42:51.374Z,19.70
2019-02-05T11:45:43.852Z,18.63
2019-02-05T11:48:36.709Z,16.93
2019-02-05T11:50:47.528Z,17.90
2019-02-05T11:52:58.326Z,17.57
2019-02-05T11:55:50.811Z,17.33
2019-02-05T11:58:01.854Z,17.27
2019-02-05T12:00:54.415Z,16.83
2019-02-05T12:03:46.851Z,15.77
2019-02-05T12:05:57.683Z,18.20
2019-02-05T12:08:08.594Z,17.67
2019-02-05T12:10:19.431Z,18.87
2019-02-05T12:12:30.318Z,18.53
2019-02-05T12:14:41.107Z,17.37
2019-02-05T12:16:53.828Z,18.20
2019-02-05T12:19:04.619Z,16.63
2019-02-05T12:21:15.466Z,19.17
2019-02-05T12:26:18.639Z,16.50
2019-02-05T12:28:31.338Z,17.00
2019-02-05T12:30:45.303Z,15.97
2019-02-05T12:32:55.197Z,20.30
2019-02-05T12:35:06.116Z,16.47
2019-02-05T12:37:16.948Z,18.23
2019-02-05T12:39:27.747Z,15.10
2019-02-05T12:41:38.703Z,20.53
2019-02-05T12:43:49.516Z,17.30
2019-02-05T12:46:00.312Z,15.63
2019-02-05T12:48:13.269Z,18.03
2019-02-05T12:50:43.944Z,15.90
2019-02-05T12:52:54.993Z,17.60
2019-02-05T12:55:47.746Z,15.67
2019-02-05T12:57:58.637Z,15.83
2019-02-05T13:00:56.848Z,14.87
2019-02-05T13:03:02.206Z,16.33
2019-02-05T13:05:54.653Z,16.60
2019-02-05T13:08:05.814Z,14.67
2019-02-05T13:10:58.281Z,16.03
2019-02-05T13:13:09.417Z,15.53
2019-02-05T13:15:20.314Z,14.97
2019-02-05T13:17:31.137Z,18.47
2019-02-05T13:19:41.959Z,14.43
2019-02-05T13:21:52.755Z,16.90
2019-02-05T13:24:03.670Z,20.77
2019-02-05T13:26:14.567Z,13.53
2019-02-05T13:31:08.066Z,15.20
2019-02-05T13:33:17.673Z,16.67
2019-02-05T13:36:10.127Z,16.83
2019-02-05T13:38:20.954Z,16.87
2019-02-05T13:40:31.867Z,15.53
2019-02-05T13:42:42.687Z,17.87
2019-02-05T13:44:53.650Z,16.17
2019-02-05T13:47:04.546Z,17.97
2019-02-05T13:49:15.402Z,15.57
2019-02-05T13:51:26.248Z,16.87
2019-02-05T13:53:39.056Z,14.37
2019-02-05T13:55:50.174Z,15.97
2019-02-05T13:58:01.111Z,17.33
2019-02-05T14:00:53.587Z,17.37
2019-02-05T14:03:46.044Z,16.77
2019-02-05T14:05:56.994Z,19.00
2019-02-05T14:08:49.431Z,16.27
2019-02-05T14:11:00.355Z,19.77
2019-02-05T14:13:13.158Z,21.60
2019-02-05T14:16:05.636Z,17.40
2019-02-05T14:18:16.485Z,16.80
2019-02-05T14:20:27.405Z,19.20
2019-02-05T14:22:38.236Z,16.03
2019-02-05T14:24:49.070Z,17.57
2019-02-05T14:27:01.848Z,16.03
2019-02-05T14:29:12.672Z,16.37
2019-02-05T14:31:31.174Z,16.37
2019-02-05T14:33:36.435Z,16.80
2019-02-05T14:35:47.243Z,17.30
2019-02-05T14:37:58.205Z,15.93
2019-02-05T14:40:50.655Z,13.60
2019-02-05T14:43:01.505Z,15.90
2019-02-05T14:45:53.966Z,18.63
2019-02-05T14:48:46.445Z,15.50
2019-02-05T14:50:57.340Z,16.23
2019-02-05T14:53:49.841Z,14.90
2019-02-05T14:56:00.628Z,15.77
2019-02-05T14:58:53.144Z,16.17
2019-02-05T15:01:04.053Z,14.83
2019-02-05T15:03:14.883Z,17.87
2019-02-05T15:05:25.780Z,14.90
2019-02-05T15:07:36.674Z,14.27
2019-02-05T15:09:47.516Z,20.23
2019-02-05T15:11:58.329Z,16.87
2019-02-05T15:14:09.142Z,17.87
2019-02-05T15:16:19.948Z,14.77
2019-02-05T15:18:31.482Z,17.03
2019-02-05T15:21:02.300Z,15.50
2019-02-05T15:23:13.154Z,12.83
2019-02-05T15:25:24.051Z,15.50
2019-02-05T15:27:34.862Z,15.50
2019-02-05T15:29:45.670Z,16.60
2019-02-05T15:31:56.473Z,15.93
2019-02-05T15:36:31.503Z,19.03
2019-02-05T15:38:42.272Z,18.73
2019-02-05T15:40:53.175Z,15.87
2019-02-05T15:43:45.720Z,21.30
2019-02-05T15:45:56.525Z,20.30
2019-02-05T15:48:07.424Z,17.60
2019-02-05T15:50:18.365Z,18.27
2019-02-05T15:52:49.055Z,17.23
2019-02-05T15:55:00.011Z,14.13
2019-02-05T15:57:10.818Z,19.00
2019-02-05T15:59:21.630Z,16.33
2019-02-05T16:01:32.451Z,16.53
2019-02-05T16:03:43.316Z,16.37
2019-02-05T16:05:54.157Z,18.47
2019-02-05T16:08:06.887Z,18.07
2019-02-05T16:10:59.368Z,17.33
2019-02-05T16:13:10.286Z,15.70
2019-02-05T16:15:21.144Z,19.00
2019-02-05T16:17:31.904Z,17.03
2019-02-05T16:19:42.740Z,18.20
2019-02-05T16:21:55.462Z,15.97
2019-02-05T16:24:08.174Z,24.77
2019-02-05T16:26:18.999Z,17.83
2019-02-05T16:28:29.858Z,17.10
2019-02-05T16:30:40.806Z,14.13
2019-02-05T16:32:51.753Z,18.10
2019-02-05T16:35:44.224Z,18.50
2019-02-05T16:37:55.106Z,15.50
2019-02-05T16:40:47.578Z,17.10
2019-02-05T16:42:58.607Z,16.07
2019-02-05T16:45:51.145Z,14.60
2019-02-05T16:48:02.061Z,16.47
2019-02-05T16:50:54.611Z,18.37
2019-02-05T16:53:47.067Z,15.23
2019-02-05T16:55:57.888Z,14.77
2019-02-05T16:58:08.924Z,15.57
2019-02-05T17:01:01.404Z,17.83
2019-02-05T17:03:12.317Z,18.00
2019-02-05T17:06:04.786Z,19.17
2019-02-05T17:08:15.693Z,17.77
2019-02-05T17:10:26.600Z,19.90
2019-02-05T17:12:37.460Z,19.63
2019-02-05T17:14:50.174Z,19.53
2019-02-05T17:17:03.135Z,17.37
2019-02-05T17:19:14.022Z,19.00
2019-02-05T17:21:24.849Z,15.63
2019-02-05T17:23:35.699Z,17.90
2019-02-05T17:25:46.799Z,18.47
2019-02-05T17:28:39.273Z,17.67
2019-02-05T17:30:50.479Z,16.23
2019-02-05T17:33:01.442Z,17.57
2019-02-05T17:35:53.929Z,18.07
2019-02-05T17:38:46.430Z,17.23
2019-02-05T17:40:57.242Z,18.93
2019-02-05T17:43:08.066Z,17.10
2019-02-05T17:45:39.370Z,19.50
2019-02-05T17:47:50.397Z,20.10
2019-02-05T17:50:01.306Z,20.73
2019-02-05T17:52:12.126Z,17.60
2019-02-05T17:54:23.103Z,18.93
2019-02-05T17:56:33.907Z,17.77
2019-02-05T17:58:44.708Z,14.77
2019-02-05T18:03:17.632Z,15.23
2019-02-05T18:05:28.518Z,21.10
2019-02-05T18:07:41.345Z,24.50
2019-02-05T18:09:52.190Z,19.60
2019-02-05T18:12:44.655Z,19.30
2019-02-05T18:14:55.535Z,15.20
2019-02-05T18:17:06.431Z,14.77
2019-02-05T18:19:17.332Z,17.67
2019-02-05T18:21:28.366Z,18.77
2019-02-05T18:23:39.187Z,18.30
2019-02-05T18:28:07.416Z,23.13
2019-02-05T18:30:59.961Z,19.80
2019-02-05T18:33:10.880Z,19.70
2019-02-05T18:35:21.746Z,21.57
2019-02-05T18:37:34.506Z,22.30
2019-02-05T18:39:47.211Z,21.33
2019-02-05T18:41:58.167Z,21.50
2019-02-05T18:44:08.984Z,18.87
2019-02-05T18:46:19.885Z,20.03
2019-02-05T18:50:48.266Z,16.83
2019-02-05T18:52:59.347Z,19.03
2019-02-05T18:55:10.705Z,17.20
2019-02-05T18:57:23.027Z,15.20
2019-02-05T18:59:33.814Z,19.07
2019-02-05T19:01:44.859Z,18.47
2019-02-05T19:03:57.559Z,18.03
2019-02-05T19:06:08.377Z,18.80
2019-02-05T19:08:19.226Z,16.63
2019-02-05T19:11:11.675Z,16.77
2019-02-05T19:13:22.543Z,19.97
2019-02-05T19:16:15.020Z,15.07
2019-02-05T19:20:42.820Z,21.50
2019-02-05T19:22:53.722Z,19.77
2019-02-05T19:25:46.202Z,21.37
2019-02-05T19:27:57.008Z,22.30
2019-02-05T19:30:49.510Z,23.30
2019-02-05T19:33:00.408Z,22.67
2019-02-05T19:37:28.612Z,21.17
2019-02-05T19:39:39.567Z,21.77
2019-02-05T19:41:50.384Z,19.27
2019-02-05T19:44:01.239Z,17.77
2019-02-05T19:51:17.054Z,20.27
2019-02-05T19:53:27.885Z,21.30
2019-02-05T19:55:40.734Z,22.33
2019-02-05T19:57:52.519Z,21.93
2019-02-05T20:00:24.321Z,20.23
2019-02-05T20:02:35.179Z,19.37
2019-02-05T20:04:46.111Z,19.47
2019-02-05T20:06:56.906Z,20.67
2019-02-05T20:09:49.425Z,20.70
2019-02-05T20:12:00.325Z,17.80
2019-02-05T20:14:11.142Z,21.77
2019-02-05T20:16:22.012Z,24.33
2019-02-05T20:18:32.935Z,20.03
2019-02-05T20:20:43.858Z,18.33
2019-02-05T20:22:54.782Z,18.20
2019-02-05T20:25:47.328Z,19.50
2019-02-05T20:27:58.162Z,18.40
2019-02-05T20:30:50.638Z,20.10
2019-02-05T20:33:01.460Z,29.57
2019-02-05T20:35:14.274Z,25.57
2019-02-05T20:37:25.161Z,26.03
2019-02-05T20:39:35.963Z,20.03
2019-02-05T20:41:46.886Z,21.90
2019-02-05T20:43:57.771Z,21.30
2019-02-05T20:46:08.601Z,24.70
2019-02-05T20:48:19.446Z,22.53
2019-02-05T20:50:30.255Z,30.37
2019-02-05T20:52:43.288Z,34.53
2019-02-05T20:54:56.116Z,30.33
2019-02-05T20:57:06.988Z,28.60
2019-02-05T20:59:17.769Z,27.67
2019-02-05T21:01:28.569Z,28.80
2019-02-05T21:03:39.388Z,28.20
2019-02-05T21:05:50.195Z,21.50
2019-02-05T21:08:01.039Z,17.73
2019-02-05T21:10:31.735Z,20.90
2019-02-05T21:12:42.563Z,19.83
2019-02-05T21:14:53.371Z,20.57
2019-02-05T21:17:04.365Z,24.60
2019-02-05T21:19:58.831Z,23.33
2019-02-05T21:22:09.638Z,20.13
2019-02-05T21:24:20.552Z,22.00
2019-02-05T21:26:31.387Z,20.57
2019-02-05T21:28:42.262Z,22.27
2019-02-05T21:30:53.068Z,22.20
2019-02-05T21:33:05.774Z,23.27
2019-02-05T21:35:36.842Z,23.30
2019-02-05T21:37:47.658Z,22.00
2019-02-05T21:40:02.441Z,23.77
2019-02-05T21:42:13.223Z,22.60
2019-02-05T21:44:24.023Z,26.67
2019-02-05T21:46:34.842Z,22.10
2019-02-05T21:48:45.698Z,24.40
2019-02-05T21:50:56.548Z,24.80
2019-02-05T21:53:07.416Z,25.77
2019-02-05T21:55:59.871Z,24.67
2019-02-05T21:58:12.532Z,32.40
2019-02-05T22:00:43.445Z,36.10
2019-02-05T22:02:54.620Z,28.60
2019-02-05T22:05:47.234Z,25.73
2019-02-05T22:07:58.199Z,26.63
2019-02-05T22:10:50.738Z,28.83
2019-02-05T22:13:01.640Z,24.87
2019-02-05T22:15:56.011Z,27.50
2019-02-05T22:18:06.831Z,25.77
2019-02-05T22:20:37.511Z,26.97
2019-02-05T22:22:48.766Z,28.50
2019-02-05T22:27:40.753Z,26.47
2019-02-05T22:29:51.547Z,29.10
2019-02-05T22:32:02.570Z,34.70
2019-02-05T22:34:13.393Z,31.60
2019-02-05T22:36:24.181Z,30.33
2019-02-05T22:38:35.015Z,31.70
2019-02-05T22:40:45.798Z,30.27
2019-02-05T22:42:58.571Z,30.70
2019-02-05T22:45:51.000Z,28.27
2019-02-05T22:48:01.916Z,29.80
2019-02-05T22:50:54.382Z,28.67
2019-02-05T22:53:47.154Z,29.97
2019-02-05T22:55:57.949Z,34.00
2019-02-05T22:58:50.417Z,28.67
2019-02-05T23:01:42.902Z,30.40
2019-02-05T23:04:35.374Z,30.30
2019-02-05T23:07:27.825Z,34.37
2019-02-05T23:10:20.285Z,28.40
2019-02-05T23:13:12.740Z,29.87
2019-02-05T23:15:23.666Z,31.47
2019-02-05T23:17:34.517Z,29.63
2019-02-05T23:19:45.313Z,33.13
2019-02-05T23:21:56.205Z,33.53
2019-02-05T23:24:07.108Z,31.17
2019-02-05T23:26:17.936Z,35.73
2019-02-05T23:28:28.855Z,31.90
2019-02-05T23:30:39.769Z,28.20
2019-02-05T23:32:52.553Z,28.03
2019-02-05T23:35:45.015Z,28.90
2019-02-05T23:37:55.846Z,30.57
2019-02-05T23:40:48.274Z,27.83
2019-02-05T23:42:59.094Z,25.57
2019-02-05T23:45:29.780Z,30.07
2019-02-05T23:47:40.579Z,30.60
2019-02-05T23:49:51.403Z,27.30
2019-02-05T23:52:02.505Z,27.33
2019-02-05T23:54:13.338Z,29.40
2019-02-05T23:56:25.567Z,31.80
2019-02-05T23:58:36.957Z,27.67
